sensor_id;sensor_type;location;lat;lon;timestamp;P1;durP1;ratioP1;P2;durP2;ratioP2
71383;SDS011;67558;52.166;5.004;2023-10-08T00:01:39;120.43;;;116.18;;
71383;SDS011;67558;52.166;5.004;2023-10-08T00:04:07;119.78;;;115.88;;
71383;SDS011;67558;52.166;5.004;2023-10-08T00:06:33;105.40;;;101.78;;
71383;SDS011;67558;52.166;5.004;2023-10-08T00:08:59;114.47;;;110.72;;
71383;SDS011;67558;52.166;5.004;2023-10-08T00:11:31;128.05;;;123.47;;
71383;SDS011;67558;52.166;5.004;2023-10-08T00:13:58;134.05;;;129.95;;
71383;SDS011;67558;52.166;5.004;2023-10-08T00:16:26;125.70;;;121.70;;
71383;SDS011;67558;52.166;5.004;2023-10-08T00:18:53;113.13;;;109.45;;
71383;SDS011;67558;52.166;5.004;2023-10-08T00:21:23;119.80;;;115.93;;
71383;SDS011;67558;52.166;5.004;2023-10-08T00:23:52;112.35;;;107.97;;
71383;SDS011;67558;52.166;5.004;2023-10-08T00:26:19;123.13;;;119.10;;
71383;SDS011;67558;52.166;5.004;2023-10-08T00:28:52;111.53;;;107.55;;
71383;SDS011;67558;52.166;5.004;2023-10-08T00:31:21;121.63;;;117.65;;
71383;SDS011;67558;52.166;5.004;2023-10-08T00:33:50;115.20;;;111.28;;
71383;SDS011;67558;52.166;5.004;2023-10-08T00:36:16;109.18;;;105.07;;
71383;SDS011;67558;52.166;5.004;2023-10-08T00:38:48;118.55;;;114.22;;
71383;SDS011;67558;52.166;5.004;2023-10-08T00:41:18;127.28;;;123.43;;
71383;SDS011;67558;52.166;5.004;2023-10-08T00:43:47;110.70;;;106.65;;
71383;SDS011;67558;52.166;5.004;2023-10-08T00:46:13;113.40;;;109.40;;
71383;SDS011;67558;52.166;5.004;2023-10-08T00:48:47;108.38;;;104.53;;
71383;SDS011;67558;52.166;5.004;2023-10-08T00:51:13;107.95;;;103.70;;
71383;SDS011;67558;52.166;5.004;2023-10-08T00:54:00;106.45;;;102.75;;
71383;SDS011;67558;52.166;5.004;2023-10-08T00:56:31;113.47;;;109.47;;
71383;SDS011;67558;52.166;5.004;2023-10-08T00:59:31;103.38;;;99.70;;
71383;SDS011;67558;52.166;5.004;2023-10-08T01:02:02;109.35;;;105.90;;
71383;SDS011;67558;52.166;5.004;2023-10-08T01:04:32;112.43;;;108.05;;
71383;SDS011;67558;52.166;5.004;2023-10-08T01:07:02;104.38;;;100.40;;
71383;SDS011;67558;52.166;5.004;2023-10-08T01:09:37;113.15;;;109.07;;
71383;SDS011;67558;52.166;5.004;2023-10-08T01:12:15;113.00;;;109.03;;
71383;SDS011;67558;52.166;5.004;2023-10-08T01:14:45;117.90;;;114.20;;
71383;SDS011;67558;52.166;5.004;2023-10-08T01:17:15;118.25;;;113.85;;
71383;SDS011;67558;52.166;5.004;2023-10-08T01:19:50;114.00;;;110.10;;
71383;SDS011;67558;52.166;5.004;2023-10-08T01:22:21;101.75;;;98.10;;
71383;SDS011;67558;52.166;5.004;2023-10-08T01:24:50;111.57;;;108.07;;
71383;SDS011;67558;52.166;5.004;2023-10-08T01:27:16;121.50;;;117.57;;
71383;SDS011;67558;52.166;5.004;2023-10-08T01:29:48;107.28;;;103.68;;
71383;SDS011;67558;52.166;5.004;2023-10-08T01:32:20;124.80;;;121.15;;
71383;SDS011;67558;52.166;5.004;2023-10-08T01:34:47;126.35;;;122.22;;
71383;SDS011;67558;52.166;5.004;2023-10-08T01:37:13;112.57;;;108.47;;
71383;SDS011;67558;52.166;5.004;2023-10-08T01:39:42;108.65;;;105.10;;
71383;SDS011;67558;52.166;5.004;2023-10-08T01:42:08;123.53;;;119.75;;
71383;SDS011;67558;52.166;5.004;2023-10-08T01:44:41;136.77;;;132.25;;
71383;SDS011;67558;52.166;5.004;2023-10-08T01:47:11;119.65;;;115.05;;
71383;SDS011;67558;52.166;5.004;2023-10-08T01:49:37;111.03;;;106.90;;
71383;SDS011;67558;52.166;5.004;2023-10-08T01:52:04;109.15;;;105.40;;
71383;SDS011;67558;52.166;5.004;2023-10-08T01:54:32;117.78;;;113.57;;
71383;SDS011;67558;52.166;5.004;2023-10-08T01:57:00;114.78;;;111.15;;
71383;SDS011;67558;52.166;5.004;2023-10-08T01:59:26;102.13;;;98.55;;
71383;SDS011;67558;52.166;5.004;2023-10-08T02:01:51;111.20;;;107.00;;
71383;SDS011;67558;52.166;5.004;2023-10-08T02:04:20;111.68;;;107.85;;
71383;SDS011;67558;52.166;5.004;2023-10-08T02:06:46;116.78;;;113.07;;
71383;SDS011;67558;52.166;5.004;2023-10-08T02:09:12;111.72;;;107.97;;
71383;SDS011;67558;52.166;5.004;2023-10-08T02:11:42;119.72;;;115.75;;
71383;SDS011;67558;52.166;5.004;2023-10-08T02:14:08;124.10;;;120.15;;
71383;SDS011;67558;52.166;5.004;2023-10-08T02:16:33;113.00;;;109.00;;
71383;SDS011;67558;52.166;5.004;2023-10-08T02:18:59;116.00;;;111.65;;
71383;SDS011;67558;52.166;5.004;2023-10-08T02:21:24;111.20;;;107.05;;
71383;SDS011;67558;52.166;5.004;2023-10-08T02:23:50;111.65;;;107.60;;
71383;SDS011;67558;52.166;5.004;2023-10-08T02:26:17;123.35;;;119.38;;
71383;SDS011;67558;52.166;5.004;2023-10-08T02:28:44;112.85;;;108.85;;
71383;SDS011;67558;52.166;5.004;2023-10-08T02:31:09;116.03;;;112.22;;
71383;SDS011;67558;52.166;5.004;2023-10-08T02:33:35;122.45;;;118.68;;
71383;SDS011;67558;52.166;5.004;2023-10-08T02:36:02;117.03;;;112.93;;
71383;SDS011;67558;52.166;5.004;2023-10-08T02:38:29;111.10;;;106.65;;
71383;SDS011;67558;52.166;5.004;2023-10-08T02:41:02;115.32;;;111.53;;
71383;SDS011;67558;52.166;5.004;2023-10-08T02:43:31;109.25;;;105.38;;
71383;SDS011;67558;52.166;5.004;2023-10-08T02:45:59;125.30;;;120.93;;
71383;SDS011;67558;52.166;5.004;2023-10-08T02:48:25;101.80;;;98.18;;
71383;SDS011;67558;52.166;5.004;2023-10-08T02:50:50;126.82;;;122.78;;
71383;SDS011;67558;52.166;5.004;2023-10-08T02:53:18;105.80;;;102.05;;
71383;SDS011;67558;52.166;5.004;2023-10-08T02:55:45;109.28;;;105.47;;
71383;SDS011;67558;52.166;5.004;2023-10-08T02:58:11;122.60;;;118.35;;
71383;SDS011;67558;52.166;5.004;2023-10-08T03:00:43;116.15;;;112.43;;
71383;SDS011;67558;52.166;5.004;2023-10-08T03:03:11;110.75;;;107.07;;
71383;SDS011;67558;52.166;5.004;2023-10-08T03:05:49;102.00;;;98.45;;
71383;SDS011;67558;52.166;5.004;2023-10-08T03:08:16;118.25;;;114.32;;
71383;SDS011;67558;52.166;5.004;2023-10-08T03:10:46;110.30;;;106.00;;
71383;SDS011;67558;52.166;5.004;2023-10-08T03:13:20;108.78;;;105.03;;
71383;SDS011;67558;52.166;5.004;2023-10-08T03:15:46;108.38;;;104.30;;
71383;SDS011;67558;52.166;5.004;2023-10-08T03:18:23;113.28;;;109.35;;
71383;SDS011;67558;52.166;5.004;2023-10-08T03:20:49;106.85;;;103.15;;
71383;SDS011;67558;52.166;5.004;2023-10-08T03:23:15;119.43;;;115.55;;
71383;SDS011;67558;52.166;5.004;2023-10-08T03:25:55;116.00;;;111.80;;
71383;SDS011;67558;52.166;5.004;2023-10-08T03:28:24;116.25;;;112.13;;
71383;SDS011;67558;52.166;5.004;2023-10-08T03:30:50;114.35;;;110.45;;
71383;SDS011;67558;52.166;5.004;2023-10-08T03:33:17;105.00;;;101.32;;
71383;SDS011;67558;52.166;5.004;2023-10-08T03:35:50;104.38;;;100.82;;
71383;SDS011;67558;52.166;5.004;2023-10-08T03:38:20;105.63;;;102.03;;
71383;SDS011;67558;52.166;5.004;2023-10-08T03:41:09;100.28;;;97.05;;
71383;SDS011;67558;52.166;5.004;2023-10-08T03:43:41;106.13;;;102.22;;
71383;SDS011;67558;52.166;5.004;2023-10-08T03:46:17;110.32;;;106.15;;
71383;SDS011;67558;52.166;5.004;2023-10-08T03:48:43;98.60;;;95.10;;
71383;SDS011;67558;52.166;5.004;2023-10-08T03:51:11;117.07;;;113.10;;
71383;SDS011;67558;52.166;5.004;2023-10-08T03:53:38;100.60;;;97.22;;
71383;SDS011;67558;52.166;5.004;2023-10-08T03:56:25;107.35;;;102.97;;
71383;SDS011;67558;52.166;5.004;2023-10-08T03:58:54;99.60;;;95.95;;
71383;SDS011;67558;52.166;5.004;2023-10-08T04:01:20;107.93;;;104.18;;
71383;SDS011;67558;52.166;5.004;2023-10-08T04:03:46;105.05;;;101.55;;
71383;SDS011;67558;52.166;5.004;2023-10-08T04:08:53;102.47;;;98.82;;
71383;SDS011;67558;52.166;5.004;2023-10-08T04:11:41;100.15;;;96.40;;
71383;SDS011;67558;52.166;5.004;2023-10-08T04:14:17;103.22;;;99.40;;
71383;SDS011;67558;52.166;5.004;2023-10-08T04:16:43;101.38;;;97.35;;
71383;SDS011;67558;52.166;5.004;2023-10-08T04:19:12;103.95;;;100.45;;
71383;SDS011;67558;52.166;5.004;2023-10-08T04:21:38;106.97;;;103.32;;
71383;SDS011;67558;52.166;5.004;2023-10-08T04:24:07;126.57;;;122.10;;
71383;SDS011;67558;52.166;5.004;2023-10-08T04:26:34;102.20;;;98.97;;
71383;SDS011;67558;52.166;5.004;2023-10-08T04:29:00;104.03;;;100.25;;
71383;SDS011;67558;52.166;5.004;2023-10-08T04:31:27;97.47;;;94.03;;
71383;SDS011;67558;52.166;5.004;2023-10-08T04:34:01;90.07;;;86.90;;
71383;SDS011;67558;52.166;5.004;2023-10-08T04:36:33;96.40;;;92.85;;
71383;SDS011;67558;52.166;5.004;2023-10-08T04:38:58;91.88;;;88.78;;
71383;SDS011;67558;52.166;5.004;2023-10-08T04:41:30;97.00;;;93.60;;
71383;SDS011;67558;52.166;5.004;2023-10-08T04:43:56;98.72;;;95.40;;
71383;SDS011;67558;52.166;5.004;2023-10-08T04:46:21;96.75;;;93.05;;
71383;SDS011;67558;52.166;5.004;2023-10-08T04:49:11;91.97;;;88.40;;
71383;SDS011;67558;52.166;5.004;2023-10-08T04:51:51;87.75;;;84.15;;
71383;SDS011;67558;52.166;5.004;2023-10-08T04:54:19;107.57;;;103.85;;
71383;SDS011;67558;52.166;5.004;2023-10-08T04:56:45;104.25;;;99.97;;
71383;SDS011;67558;52.166;5.004;2023-10-08T04:59:11;111.43;;;107.43;;
71383;SDS011;67558;52.166;5.004;2023-10-08T05:01:36;97.65;;;93.60;;
71383;SDS011;67558;52.166;5.004;2023-10-08T05:04:05;92.85;;;89.05;;
71383;SDS011;67558;52.166;5.004;2023-10-08T05:06:32;95.15;;;91.97;;
71383;SDS011;67558;52.166;5.004;2023-10-08T05:09:05;104.13;;;100.55;;
71383;SDS011;67558;52.166;5.004;2023-10-08T05:11:43;92.03;;;88.90;;
71383;SDS011;67558;52.166;5.004;2023-10-08T05:14:17;92.88;;;89.03;;
71383;SDS011;67558;52.166;5.004;2023-10-08T05:17:16;99.47;;;95.93;;
71383;SDS011;67558;52.166;5.004;2023-10-08T05:19:44;95.45;;;92.03;;
71383;SDS011;67558;52.166;5.004;2023-10-08T05:22:14;83.35;;;80.18;;
71383;SDS011;67558;52.166;5.004;2023-10-08T05:24:49;85.50;;;82.25;;
71383;SDS011;67558;52.166;5.004;2023-10-08T05:27:36;97.40;;;93.75;;
71383;SDS011;67558;52.166;5.004;2023-10-08T05:30:25;87.10;;;84.10;;
71383;SDS011;67558;52.166;5.004;2023-10-08T05:33:07;81.60;;;79.07;;
71383;SDS011;67558;52.166;5.004;2023-10-08T05:35:33;88.88;;;86.10;;
71383;SDS011;67558;52.166;5.004;2023-10-08T05:38:07;83.68;;;80.97;;
71383;SDS011;67558;52.166;5.004;2023-10-08T05:41:03;87.03;;;84.30;;
71383;SDS011;67558;52.166;5.004;2023-10-08T05:46:05;82.82;;;80.35;;
71383;SDS011;67558;52.166;5.004;2023-10-08T05:48:56;82.70;;;80.32;;
71383;SDS011;67558;52.166;5.004;2023-10-08T05:51:32;74.53;;;72.15;;
71383;SDS011;67558;52.166;5.004;2023-10-08T05:54:30;72.97;;;70.90;;
71383;SDS011;67558;52.166;5.004;2023-10-08T05:56:57;75.25;;;72.93;;
71383;SDS011;67558;52.166;5.004;2023-10-08T05:59:35;76.97;;;74.78;;
71383;SDS011;67558;52.166;5.004;2023-10-08T06:02:20;74.35;;;72.35;;
71383;SDS011;67558;52.166;5.004;2023-10-08T06:04:53;75.72;;;73.32;;
71383;SDS011;67558;52.166;5.004;2023-10-08T06:10:25;66.65;;;64.63;;
71383;SDS011;67558;52.166;5.004;2023-10-08T06:12:52;80.82;;;78.47;;
71383;SDS011;67558;52.166;5.004;2023-10-08T06:15:26;65.15;;;63.10;;
71383;SDS011;67558;52.166;5.004;2023-10-08T06:18:09;67.35;;;65.20;;
71383;SDS011;67558;52.166;5.004;2023-10-08T06:20:35;80.40;;;78.00;;
71383;SDS011;67558;52.166;5.004;2023-10-08T06:23:02;68.93;;;66.47;;
71383;SDS011;67558;52.166;5.004;2023-10-08T06:25:32;67.93;;;65.70;;
71383;SDS011;67558;52.166;5.004;2023-10-08T06:27:58;80.68;;;77.75;;
71383;SDS011;67558;52.166;5.004;2023-10-08T06:30:24;75.00;;;72.53;;
71383;SDS011;67558;52.166;5.004;2023-10-08T06:32:54;67.70;;;65.43;;
71383;SDS011;67558;52.166;5.004;2023-10-08T06:35:20;62.70;;;60.58;;
71383;SDS011;67558;52.166;5.004;2023-10-08T06:37:50;67.15;;;64.82;;
71383;SDS011;67558;52.166;5.004;2023-10-08T06:40:19;73.10;;;70.45;;
71383;SDS011;67558;52.166;5.004;2023-10-08T06:43:11;64.90;;;62.65;;
71383;SDS011;67558;52.166;5.004;2023-10-08T06:45:46;63.35;;;61.08;;
71383;SDS011;67558;52.166;5.004;2023-10-08T06:48:13;69.35;;;66.60;;
71383;SDS011;67558;52.166;5.004;2023-10-08T06:50:48;68.53;;;66.63;;
71383;SDS011;67558;52.166;5.004;2023-10-08T06:53:18;66.22;;;63.90;;
71383;SDS011;67558;52.166;5.004;2023-10-08T06:55:46;75.10;;;72.80;;
71383;SDS011;67558;52.166;5.004;2023-10-08T06:58:13;69.35;;;67.10;;
71383;SDS011;67558;52.166;5.004;2023-10-08T07:00:40;67.63;;;65.53;;
71383;SDS011;67558;52.166;5.004;2023-10-08T07:03:12;64.35;;;62.35;;
71383;SDS011;67558;52.166;5.004;2023-10-08T07:05:43;66.97;;;64.90;;
71383;SDS011;67558;52.166;5.004;2023-10-08T07:08:19;68.50;;;66.57;;
71383;SDS011;67558;52.166;5.004;2023-10-08T07:10:48;70.85;;;68.45;;
71383;SDS011;67558;52.166;5.004;2023-10-08T07:13:14;70.57;;;68.40;;
71383;SDS011;67558;52.166;5.004;2023-10-08T07:15:42;67.10;;;65.07;;
71383;SDS011;67558;52.166;5.004;2023-10-08T07:18:10;65.65;;;63.55;;
71383;SDS011;67558;52.166;5.004;2023-10-08T07:20:38;64.40;;;61.85;;
71383;SDS011;67558;52.166;5.004;2023-10-08T07:23:05;68.60;;;66.40;;
71383;SDS011;67558;52.166;5.004;2023-10-08T07:25:37;66.13;;;64.13;;
71383;SDS011;67558;52.166;5.004;2023-10-08T07:28:42;66.30;;;64.28;;
71383;SDS011;67558;52.166;5.004;2023-10-08T07:31:15;66.93;;;64.93;;
71383;SDS011;67558;52.166;5.004;2023-10-08T07:33:41;65.72;;;63.67;;
71383;SDS011;67558;52.166;5.004;2023-10-08T07:36:11;73.25;;;71.13;;
71383;SDS011;67558;52.166;5.004;2023-10-08T07:38:39;67.40;;;65.38;;
71383;SDS011;67558;52.166;5.004;2023-10-08T07:41:12;70.57;;;68.40;;
71383;SDS011;67558;52.166;5.004;2023-10-08T07:46:05;66.38;;;64.38;;
71383;SDS011;67558;52.166;5.004;2023-10-08T07:48:30;65.95;;;64.05;;
71383;SDS011;67558;52.166;5.004;2023-10-08T07:50:56;62.72;;;61.03;;
71383;SDS011;67558;52.166;5.004;2023-10-08T07:53:25;75.85;;;73.85;;
71383;SDS011;67558;52.166;5.004;2023-10-08T07:56:02;76.13;;;74.03;;
71383;SDS011;67558;52.166;5.004;2023-10-08T07:58:28;69.57;;;67.72;;
71383;SDS011;67558;52.166;5.004;2023-10-08T08:00:54;72.85;;;70.47;;
71383;SDS011;67558;52.166;5.004;2023-10-08T08:03:20;71.38;;;69.20;;
71383;SDS011;67558;52.166;5.004;2023-10-08T08:05:46;67.45;;;65.45;;
71383;SDS011;67558;52.166;5.004;2023-10-08T08:08:13;68.85;;;66.90;;
71383;SDS011;67558;52.166;5.004;2023-10-08T08:10:43;73.22;;;71.13;;
71383;SDS011;67558;52.166;5.004;2023-10-08T08:13:11;71.03;;;69.03;;
71383;SDS011;67558;52.166;5.004;2023-10-08T08:15:37;74.72;;;72.63;;
71383;SDS011;67558;52.166;5.004;2023-10-08T08:18:07;71.80;;;69.90;;
71383;SDS011;67558;52.166;5.004;2023-10-08T08:20:36;74.40;;;72.35;;
71383;SDS011;67558;52.166;5.004;2023-10-08T08:23:07;72.30;;;70.22;;
71383;SDS011;67558;52.166;5.004;2023-10-08T08:25:39;74.18;;;72.20;;
71383;SDS011;67558;52.166;5.004;2023-10-08T08:28:11;75.85;;;73.78;;
71383;SDS011;67558;52.166;5.004;2023-10-08T08:30:46;72.93;;;71.03;;
71383;SDS011;67558;52.166;5.004;2023-10-08T08:33:13;76.93;;;74.95;;
71383;SDS011;67558;52.166;5.004;2023-10-08T08:35:41;81.20;;;79.00;;
71383;SDS011;67558;52.166;5.004;2023-10-08T08:38:07;81.28;;;79.15;;
71383;SDS011;67558;52.166;5.004;2023-10-08T08:40:33;81.40;;;79.25;;
71383;SDS011;67558;52.166;5.004;2023-10-08T08:42:59;81.60;;;79.50;;
71383;SDS011;67558;52.166;5.004;2023-10-08T08:45:30;83.10;;;80.95;;
71383;SDS011;67558;52.166;5.004;2023-10-08T08:47:58;86.10;;;83.88;;
71383;SDS011;67558;52.166;5.004;2023-10-08T08:50:24;97.00;;;94.57;;
71383;SDS011;67558;52.166;5.004;2023-10-08T08:52:51;89.82;;;87.50;;
71383;SDS011;67558;52.166;5.004;2023-10-08T08:55:17;89.63;;;87.22;;
71383;SDS011;67558;52.166;5.004;2023-10-08T08:57:44;83.25;;;81.10;;
71383;SDS011;67558;52.166;5.004;2023-10-08T09:00:12;89.97;;;87.68;;
71383;SDS011;67558;52.166;5.004;2023-10-08T09:02:39;76.50;;;74.43;;
71383;SDS011;67558;52.166;5.004;2023-10-08T09:05:05;84.60;;;82.30;;
71383;SDS011;67558;52.166;5.004;2023-10-08T09:07:59;85.05;;;82.63;;
71383;SDS011;67558;52.166;5.004;2023-10-08T09:10:29;81.60;;;79.50;;
71383;SDS011;67558;52.166;5.004;2023-10-08T09:13:01;87.35;;;84.95;;
71383;SDS011;67558;52.166;5.004;2023-10-08T09:15:28;89.63;;;87.15;;
71383;SDS011;67558;52.166;5.004;2023-10-08T09:17:54;96.00;;;93.43;;
71383;SDS011;67558;52.166;5.004;2023-10-08T09:20:21;104.63;;;101.90;;
71383;SDS011;67558;52.166;5.004;2023-10-08T09:25:47;91.65;;;89.15;;
71383;SDS011;67558;52.166;5.004;2023-10-08T09:28:17;84.75;;;82.47;;
71383;SDS011;67558;52.166;5.004;2023-10-08T09:30:43;90.70;;;88.18;;
71383;SDS011;67558;52.166;5.004;2023-10-08T09:33:10;87.35;;;84.95;;
71383;SDS011;67558;52.166;5.004;2023-10-08T09:35:41;94.72;;;91.68;;
71383;SDS011;67558;52.166;5.004;2023-10-08T09:38:08;90.75;;;88.25;;
71383;SDS011;67558;52.166;5.004;2023-10-08T09:40:35;88.72;;;86.22;;
71383;SDS011;67558;52.166;5.004;2023-10-08T09:43:02;89.43;;;87.00;;
71383;SDS011;67558;52.166;5.004;2023-10-08T09:45:29;87.85;;;85.32;;
71383;SDS011;67558;52.166;5.004;2023-10-08T09:47:55;88.35;;;85.88;;
71383;SDS011;67558;52.166;5.004;2023-10-08T09:50:31;97.30;;;94.75;;
71383;SDS011;67558;52.166;5.004;2023-10-08T09:53:08;90.00;;;87.55;;
71383;SDS011;67558;52.166;5.004;2023-10-08T09:55:43;94.30;;;91.88;;
71383;SDS011;67558;52.166;5.004;2023-10-08T09:58:11;98.88;;;96.20;;
71383;SDS011;67558;52.166;5.004;2023-10-08T10:00:39;105.95;;;103.15;;
71383;SDS011;67558;52.166;5.004;2023-10-08T10:03:07;100.80;;;98.10;;
71383;SDS011;67558;52.166;5.004;2023-10-08T10:05:34;97.40;;;94.75;;
71383;SDS011;67558;52.166;5.004;2023-10-08T10:08:02;97.75;;;95.13;;
71383;SDS011;67558;52.166;5.004;2023-10-08T10:10:31;94.00;;;91.40;;
71383;SDS011;67558;52.166;5.004;2023-10-08T10:13:02;100.85;;;98.10;;
71383;SDS011;67558;52.166;5.004;2023-10-08T10:15:31;99.95;;;97.30;;
71383;SDS011;67558;52.166;5.004;2023-10-08T10:18:26;94.40;;;91.80;;
71383;SDS011;67558;52.166;5.004;2023-10-08T10:20:56;94.03;;;91.55;;
71383;SDS011;67558;52.166;5.004;2023-10-08T10:23:35;100.53;;;97.85;;
71383;SDS011;67558;52.166;5.004;2023-10-08T10:26:23;89.05;;;86.68;;
71383;SDS011;67558;52.166;5.004;2023-10-08T10:31:52;103.72;;;101.13;;
71383;SDS011;67558;52.166;5.004;2023-10-08T10:34:25;92.22;;;89.82;;
71383;SDS011;67558;52.166;5.004;2023-10-08T10:36:56;100.05;;;97.32;;
71383;SDS011;67558;52.166;5.004;2023-10-08T10:39:53;98.72;;;96.22;;
71383;SDS011;67558;52.166;5.004;2023-10-08T10:42:25;95.93;;;93.30;;
71383;SDS011;67558;52.166;5.004;2023-10-08T10:44:53;104.22;;;101.35;;
71383;SDS011;67558;52.166;5.004;2023-10-08T10:47:20;99.55;;;96.82;;
71383;SDS011;67558;52.166;5.004;2023-10-08T10:49:47;99.03;;;96.38;;
71383;SDS011;67558;52.166;5.004;2023-10-08T10:52:31;99.78;;;97.10;;
71383;SDS011;67558;52.166;5.004;2023-10-08T10:55:03;98.53;;;95.78;;
71383;SDS011;67558;52.166;5.004;2023-10-08T10:57:39;90.30;;;87.90;;
71383;SDS011;67558;52.166;5.004;2023-10-08T11:03:01;87.50;;;85.10;;
71383;SDS011;67558;52.166;5.004;2023-10-08T11:05:31;95.07;;;92.43;;
71383;SDS011;67558;52.166;5.004;2023-10-08T11:08:02;86.95;;;84.43;;
71383;SDS011;67558;52.166;5.004;2023-10-08T11:10:32;88.40;;;85.97;;
71383;SDS011;67558;52.166;5.004;2023-10-08T11:12:58;92.32;;;89.70;;
71383;SDS011;67558;52.166;5.004;2023-10-08T11:15:30;92.55;;;90.18;;
71383;SDS011;67558;52.166;5.004;2023-10-08T11:18:11;86.13;;;83.82;;
71383;SDS011;67558;52.166;5.004;2023-10-08T11:20:38;85.03;;;82.63;;
71383;SDS011;67558;52.166;5.004;2023-10-08T11:23:09;92.53;;;89.97;;
71383;SDS011;67558;52.166;5.004;2023-10-08T11:25:57;85.05;;;82.65;;
71383;SDS011;67558;52.166;5.004;2023-10-08T11:31:07;93.28;;;90.65;;
71383;SDS011;67558;52.166;5.004;2023-10-08T11:33:39;91.75;;;89.07;;
71383;SDS011;67558;52.166;5.004;2023-10-08T11:36:07;97.50;;;94.93;;
71383;SDS011;67558;52.166;5.004;2023-10-08T11:38:52;94.88;;;92.25;;
71383;SDS011;67558;52.166;5.004;2023-10-08T11:41:21;131.68;;;128.27;;
71383;SDS011;67558;52.166;5.004;2023-10-08T11:43:50;97.00;;;94.30;;
71383;SDS011;67558;52.166;5.004;2023-10-08T11:46:29;102.10;;;99.20;;
71383;SDS011;67558;52.166;5.004;2023-10-08T11:49:05;89.55;;;87.05;;
71383;SDS011;67558;52.166;5.004;2023-10-08T11:51:31;97.43;;;94.75;;
71383;SDS011;67558;52.166;5.004;2023-10-08T11:53:58;95.80;;;93.22;;
71383;SDS011;67558;52.166;5.004;2023-10-08T11:56:25;89.85;;;87.32;;
71383;SDS011;67558;52.166;5.004;2023-10-08T11:58:51;88.40;;;85.80;;
71383;SDS011;67558;52.166;5.004;2023-10-08T12:01:17;98.50;;;95.78;;
71383;SDS011;67558;52.166;5.004;2023-10-08T12:03:43;106.93;;;103.75;;
71383;SDS011;67558;52.166;5.004;2023-10-08T12:06:12;101.68;;;98.97;;
71383;SDS011;67558;52.166;5.004;2023-10-08T12:08:43;96.75;;;94.10;;
71383;SDS011;67558;52.166;5.004;2023-10-08T12:11:12;99.80;;;96.85;;
71383;SDS011;67558;52.166;5.004;2023-10-08T12:13:38;104.43;;;101.60;;
71383;SDS011;67558;52.166;5.004;2023-10-08T12:16:09;110.30;;;107.20;;
71383;SDS011;67558;52.166;5.004;2023-10-08T12:18:46;102.15;;;99.18;;
71383;SDS011;67558;52.166;5.004;2023-10-08T12:21:18;107.95;;;105.18;;
71383;SDS011;67558;52.166;5.004;2023-10-08T12:23:44;125.30;;;122.03;;
71383;SDS011;67558;52.166;5.004;2023-10-08T12:26:12;120.15;;;116.95;;
71383;SDS011;67558;52.166;5.004;2023-10-08T12:28:41;117.50;;;114.38;;
71383;SDS011;67558;52.166;5.004;2023-10-08T12:31:10;114.32;;;111.28;;
71383;SDS011;67558;52.166;5.004;2023-10-08T12:33:47;125.63;;;122.32;;
71383;SDS011;67558;52.166;5.004;2023-10-08T12:36:21;111.35;;;108.10;;
71383;SDS011;67558;52.166;5.004;2023-10-08T12:38:51;109.85;;;106.88;;
71383;SDS011;67558;52.166;5.004;2023-10-08T12:41:22;112.80;;;109.82;;
71383;SDS011;67558;52.166;5.004;2023-10-08T12:43:50;136.15;;;132.57;;
71383;SDS011;67558;52.166;5.004;2023-10-08T12:46:17;118.07;;;114.97;;
71383;SDS011;67558;52.166;5.004;2023-10-08T12:48:45;120.43;;;117.10;;
71383;SDS011;67558;52.166;5.004;2023-10-08T12:51:16;122.60;;;118.95;;
71383;SDS011;67558;52.166;5.004;2023-10-08T12:53:42;130.20;;;126.75;;
71383;SDS011;67558;52.166;5.004;2023-10-08T12:56:15;126.30;;;123.10;;
71383;SDS011;67558;52.166;5.004;2023-10-08T12:58:42;123.53;;;119.97;;
71383;SDS011;67558;52.166;5.004;2023-10-08T13:01:13;132.85;;;129.32;;
71383;SDS011;67558;52.166;5.004;2023-10-08T13:03:44;119.18;;;115.65;;
71383;SDS011;67558;52.166;5.004;2023-10-08T13:06:14;143.55;;;139.73;;
71383;SDS011;67558;52.166;5.004;2023-10-08T13:08:50;127.68;;;124.32;;
71383;SDS011;67558;52.166;5.004;2023-10-08T13:11:18;117.55;;;114.32;;
71383;SDS011;67558;52.166;5.004;2023-10-08T13:13:48;128.88;;;125.47;;
71383;SDS011;67558;52.166;5.004;2023-10-08T13:16:21;121.28;;;117.63;;
71383;SDS011;67558;52.166;5.004;2023-10-08T13:18:48;117.25;;;114.22;;
71383;SDS011;67558;52.166;5.004;2023-10-08T13:21:14;122.65;;;119.55;;
71383;SDS011;67558;52.166;5.004;2023-10-08T13:23:40;119.22;;;116.10;;
71383;SDS011;67558;52.166;5.004;2023-10-08T13:26:06;116.70;;;113.60;;
71383;SDS011;67558;52.166;5.004;2023-10-08T13:28:35;126.75;;;123.53;;
71383;SDS011;67558;52.166;5.004;2023-10-08T13:31:01;126.60;;;123.15;;
71383;SDS011;67558;52.166;5.004;2023-10-08T13:33:37;120.45;;;117.10;;
71383;SDS011;67558;52.166;5.004;2023-10-08T13:36:04;114.07;;;111.00;;
71383;SDS011;67558;52.166;5.004;2023-10-08T13:38:33;111.68;;;108.75;;
71383;SDS011;67558;52.166;5.004;2023-10-08T13:41:03;113.57;;;110.25;;
71383;SDS011;67558;52.166;5.004;2023-10-08T13:43:34;109.47;;;106.28;;
71383;SDS011;67558;52.166;5.004;2023-10-08T13:46:04;112.72;;;109.50;;
71383;SDS011;67558;52.166;5.004;2023-10-08T13:48:32;114.00;;;111.07;;
71383;SDS011;67558;52.166;5.004;2023-10-08T13:51:00;119.50;;;116.30;;
71383;SDS011;67558;52.166;5.004;2023-10-08T13:53:28;114.65;;;111.38;;
71383;SDS011;67558;52.166;5.004;2023-10-08T13:55:56;113.18;;;110.05;;
71383;SDS011;67558;52.166;5.004;2023-10-08T13:58:23;116.50;;;113.25;;
71383;SDS011;67558;52.166;5.004;2023-10-08T14:00:49;111.90;;;108.80;;
71383;SDS011;67558;52.166;5.004;2023-10-08T14:03:17;106.38;;;103.22;;
71383;SDS011;67558;52.166;5.004;2023-10-08T14:05:46;107.20;;;104.03;;
71383;SDS011;67558;52.166;5.004;2023-10-08T14:08:15;111.70;;;108.70;;
71383;SDS011;67558;52.166;5.004;2023-10-08T14:10:42;101.07;;;98.25;;
71383;SDS011;67558;52.166;5.004;2023-10-08T14:13:08;115.57;;;112.32;;
71383;SDS011;67558;52.166;5.004;2023-10-08T14:15:34;107.43;;;104.53;;
71383;SDS011;67558;52.166;5.004;2023-10-08T14:18:07;103.63;;;100.60;;
71383;SDS011;67558;52.166;5.004;2023-10-08T14:20:33;99.05;;;96.38;;
71383;SDS011;67558;52.166;5.004;2023-10-08T14:22:59;111.18;;;108.10;;
71383;SDS011;67558;52.166;5.004;2023-10-08T14:25:27;106.78;;;103.78;;
71383;SDS011;67558;52.166;5.004;2023-10-08T14:27:58;104.32;;;101.57;;
71383;SDS011;67558;52.166;5.004;2023-10-08T14:30:30;108.07;;;105.28;;
71383;SDS011;67558;52.166;5.004;2023-10-08T14:33:00;104.00;;;101.28;;
71383;SDS011;67558;52.166;5.004;2023-10-08T14:35:28;116.38;;;113.38;;
71383;SDS011;67558;52.166;5.004;2023-10-08T14:38:12;101.07;;;98.18;;
71383;SDS011;67558;52.166;5.004;2023-10-08T14:40:56;106.07;;;103.03;;
71383;SDS011;67558;52.166;5.004;2023-10-08T14:43:40;102.65;;;99.85;;
71383;SDS011;67558;52.166;5.004;2023-10-08T14:46:06;99.78;;;97.10;;
71383;SDS011;67558;52.166;5.004;2023-10-08T14:48:34;112.25;;;109.15;;
71383;SDS011;67558;52.166;5.004;2023-10-08T14:51:05;90.20;;;87.80;;